Terminal Aerodrome Forecast
Issued by NWS

Home | Current Version | Previous Version | Text Only | Print | Product List | Glossary On
Versions: 1 2 3 4 5 6 7 8 9 10 11 12 13 14 15 16 17 18 19
000
FTUS44 KLZK 251100 RRA
TAFADF
TAF
KADF 251140Z 2512/2612 17005KT P6SM OVC015
      TEMPO 2512/2515 4SM BR OVC008
     FM251800 18008KT P6SM VCTS BKN025 OVC050CB
     FM252000 17010KT P6SM VCTS BKN050CB
      TEMPO 2600/2604 VRB20G45KT 2SM TSRA BR OVC015CB=

USA.gov is the U.S. government's official web portal to all federal, state and local government web resources and services.